Time;durP1;ratioP1;P1;durP2;ratioP2;P2;SDS_P1;SDS_P2;PMS_P1;PMS_P2;Temp;Humidity;BMP_temperature;BMP_pressure;BME280_temperature;BME280_humidity;BME280_pressure;Samples;Min_cycle;Max_cycle;Signal;HPM_P1;HPM_P2
2021/01/27 00:00:10;;;;;;;0.70;0.60;;;2.30;99.90;;;2.67;100.00;116224.59;5052972;28;20240;-65
2021/01/27 00:02:37;;;;;;;0.70;0.60;;;2.30;99.90;;;2.66;100.00;118200.91;5055288;28;20646;-64
2021/01/27 00:05:08;;;;;;;0.70;0.60;;;2.20;99.90;;;2.67;100.00;120182.41;5054063;28;20658;-65
2021/01/27 00:07:35;;;;;;;0.65;0.60;;;2.10;99.90;;;2.66;100.00;121170.47;5052501;28;20278;-65
2021/01/27 00:10:04;;;;;;;0.70;0.60;;;2.10;99.90;;;2.62;100.00;121822.25;5063716;28;20195;-66
2021/01/27 00:12:31;;;;;;;0.70;0.60;;;2.10;99.90;;;2.63;100.00;122815.94;5066985;28;20188;-65
2021/01/27 00:14:58;;;;;;;0.60;0.60;;;2.10;99.90;;;2.68;100.00;123155.81;5061807;28;20213;-65
2021/01/27 00:17:27;;;;;;;0.70;0.60;;;2.10;99.90;;;2.64;100.00;123808.94;5068634;28;20180;-65
2021/01/27 00:19:54;;;;;;;0.70;0.60;;;2.20;99.90;;;2.62;100.00;124134.97;5071023;28;20186;-65
2021/01/27 00:22:21;;;;;;;0.70;0.60;;;2.20;99.90;;;2.66;100.00;125133.78;5072684;28;20185;-67
2021/01/27 00:24:48;;;;;;;0.70;0.60;;;2.10;99.90;;;2.74;100.00;125812.25;5067495;28;20715;-64
2021/01/27 00:27:15;;;;;;;0.70;0.60;;;2.20;99.90;;;2.82;100.00;127151.31;5065022;28;20212;-66
2021/01/27 00:29:42;;;;;;;0.70;0.60;;;2.30;99.90;;;2.75;100.00;126474.53;5059189;28;20302;-64
2021/01/27 00:32:09;;;;;;;0.70;0.60;;;2.30;99.90;;;2.81;100.00;127811.75;5070649;28;20641;-65
2021/01/27 00:34:37;;;;;;;0.65;0.60;;;2.30;99.90;;;2.87;100.00;128155.94;5064494;28;20178;-65
2021/01/27 00:37:04;;;;;;;0.70;0.60;;;2.30;99.90;;;2.84;100.00;129140.81;5052502;28;20182;-64
2021/01/27 00:39:31;;;;;;;1.02;0.93;;;2.30;99.90;;;2.88;100.00;128489.03;5062890;28;20598;-65
2021/01/27 00:42:01;;;;;;;0.70;0.50;;;2.40;99.90;;;2.97;100.00;126192.13;5053668;28;20197;-65
2021/01/27 00:44:27;;;;;;;0.70;0.60;;;2.50;99.90;;;3.11;100.00;124237.47;5064691;28;20685;-64
2021/01/27 00:46:54;;;;;;;0.70;0.60;;;2.50;99.90;;;3.13;100.00;124904.22;5056410;28;20681;-64
2021/01/27 00:49:23;;;;;;;0.70;0.60;;;2.50;99.90;;;3.15;100.00;125568.94;5061896;28;20219;-64
2021/01/27 00:51:51;;;;;;;0.70;0.60;;;2.50;99.90;;;3.17;100.00;127889.50;5057476;28;20197;-65
2021/01/27 00:54:18;;;;;;;0.68;0.60;;;2.50;99.90;;;3.14;100.00;129538.09;5061456;28;20204;-65
2021/01/27 00:56:47;;;;;;;0.70;0.60;;;2.50;99.90;;;3.23;100.00;130552.00;5061470;28;20603;-65
2021/01/27 00:59:14;;;;;;;0.70;0.60;;;2.50;99.90;;;3.13;100.00;131524.31;5072335;28;20224;-64
2021/01/27 01:01:42;;;;;;;0.70;0.60;;;2.50;99.90;;;3.07;100.00;132172.06;5074144;28;20196;-65
2021/01/27 01:04:19;;;;;;;0.70;0.60;;;2.60;99.90;;;3.24;100.00;133535.91;5074855;28;20621;-64
2021/01/27 01:06:47;;;;;;;0.70;0.60;;;2.60;99.90;;;3.15;100.00;134179.28;5075346;28;20185;-66
2021/01/27 01:09:14;;;;;;;0.70;0.60;;;2.60;99.90;;;3.13;100.00;135501.13;5067902;28;20189;-65
2021/01/27 01:11:42;;;;;;;0.70;0.60;;;2.60;99.90;;;3.21;100.00;136183.47;5074358;28;20550;-65
2021/01/27 01:14:09;;;;;;;0.70;0.60;;;2.60;99.90;;;3.25;100.00;135197.63;5060299;28;20296;-65
2021/01/27 01:16:38;;;;;;;0.70;0.60;;;2.70;99.90;;;3.19;100.00;136509.34;5062928;28;20644;-65
2021/01/27 01:19:06;;;;;;;0.70;0.60;;;2.70;99.90;;;3.14;100.00;138823.13;5056778;28;20534;-65
2021/01/27 01:21:33;;;;;;;0.70;0.60;;;2.60;99.90;;;3.19;100.00;139498.06;5054871;28;20235;-65
2021/01/27 01:24:00;;;;;;;0.70;0.60;;;2.70;99.90;;;3.24;100.00;140837.66;5060266;28;20272;-64
2021/01/27 01:26:28;;;;;;;0.70;0.60;;;2.60;99.90;;;3.14;100.00;141478.91;5075498;28;20248;-65
2021/01/27 01:28:55;;;;;;;0.70;0.60;;;2.60;99.90;;;3.25;100.00;142502.97;5075270;28;20217;-65
2021/01/27 01:31:22;;;;;;;0.70;0.60;;;2.60;99.90;;;3.13;100.00;143470.47;5075887;28;20200;-65
2021/01/27 01:33:49;;;;;;;0.70;0.60;;;2.60;99.90;;;3.13;100.00;144467.88;5066254;28;20230;-65
2021/01/27 01:36:16;;;;;;;0.70;0.60;;;2.60;99.90;;;3.32;100.00;144514.25;5055658;28;20194;-65
2021/01/27 01:38:44;;;;;;;0.70;0.60;;;2.70;99.90;;;3.28;100.00;144838.09;5067237;28;20192;-67
2021/01/27 01:41:12;;;;;;;0.70;0.60;;;2.70;99.90;;;3.25;100.00;145495.84;5061434;28;20193;-65
2021/01/27 01:43:41;;;;;;;0.70;0.60;;;2.60;99.90;;;3.23;100.00;145489.53;5064265;28;20208;-65
2021/01/27 01:46:14;;;;;;;0.70;0.60;;;2.70;99.90;;;3.27;100.00;145503.47;5075402;28;20185;-65
2021/01/27 01:48:48;;;;;;;0.70;0.60;;;2.70;99.90;;;3.37;100.00;145528.72;5074807;28;20239;-65
2021/01/27 01:51:26;;;;;;;1.45;1.38;;;2.80;99.90;;;3.35;100.00;145522.41;5070444;28;20506;-64
2021/01/27 01:53:57;;;;;;;0.70;0.50;;;2.70;99.90;;;3.22;100.00;145489.63;5056018;28;20570;-64
2021/01/27 01:56:30;;;;;;;0.70;0.60;;;2.70;99.90;;;3.26;100.00;145500.97;5061552;28;20201;-65
2021/01/27 01:59:04;;;;;;;0.70;0.70;;;2.70;99.90;;;3.30;100.00;145511.06;5066782;28;20262;-64
2021/01/27 02:01:32;;;;;;;0.68;0.60;;;2.70;99.90;;;3.35;100.00;145523.69;5073407;28;20184;-64
2021/01/27 02:03:59;;;;;;;0.70;0.60;;;2.70;99.90;;;3.37;100.00;145528.72;5075020;28;20189;-64
2021/01/27 02:06:27;;;;;;;0.70;0.60;;;2.70;99.90;;;3.27;100.00;145503.47;5066533;28;20217;-64
2021/01/27 02:08:57;;;;;;;0.70;0.60;;;2.70;99.90;;;3.31;100.00;145512.31;5068694;28;20561;-64
2021/01/27 02:11:49;;;;;;;0.70;0.60;;;2.70;99.90;;;3.29;100.00;145507.28;5059438;28;20178;-64
2021/01/27 02:14:39;;;;;;;0.68;0.60;;;2.70;99.90;;;3.23;100.00;145493.38;5055858;28;20209;-64
2021/01/27 02:17:17;;;;;;;0.70;0.60;;;2.80;99.90;;;3.35;100.00;145523.69;5055223;28;20182;-65
2021/01/27 02:20:53;;;;;;;0.70;0.60;;;2.80;99.90;;;3.40;100.00;145535.06;5069836;28;20185;-65
2021/01/27 02:24:26;;;;;;;0.70;0.60;;;2.80;99.90;;;3.42;100.00;145538.81;5055162;28;20246;-65
2021/01/27 02:27:14;;;;;;;0.70;0.60;;;2.90;99.90;;;3.61;100.00;145588.06;5055915;28;20206;-64
2021/01/27 02:30:14;;;;;;;0.70;0.60;;;2.90;99.90;;;3.53;100.00;145566.59;5072040;28;20217;-65
2021/01/27 02:33:22;;;;;;;0.70;0.50;;;3.00;99.90;;;3.52;100.00;145564.06;5074262;28;20177;-65
2021/01/27 02:35:59;;;;;;;0.70;0.60;;;2.90;99.90;;;3.59;100.00;145581.75;5062173;28;20696;-65
2021/01/27 02:38:31;;;;;;;0.70;0.60;;;3.00;99.90;;;3.39;100.00;145533.78;5064131;28;20201;-65
2021/01/27 02:41:05;;;;;;;0.70;0.60;;;2.90;99.90;;;3.36;100.00;145526.22;5069901;28;20569;-65
2021/01/27 02:43:36;;;;;;;1.00;1.00;;;2.90;99.90;;;3.65;100.00;145595.66;5054999;28;20577;-64
2021/01/27 02:46:12;;;;;;;0.70;0.60;;;2.90;99.90;;;3.42;100.00;145538.81;5054039;28;20223;-66
2021/01/27 02:48:46;;;;;;;0.70;0.60;;;2.80;99.90;;;3.38;100.00;145531.22;5057307;28;20209;-65
2021/01/27 02:51:20;;;;;;;0.70;0.60;;;2.80;99.90;;;3.17;100.00;145478.25;5068479;28;20185;-65
2021/01/27 02:53:55;;;;;;;0.70;0.60;;;2.70;99.90;;;3.07;100.00;145453.03;5061291;28;20204;-66
2021/01/27 02:56:31;;;;;;;0.70;0.57;;;2.60;99.90;;;2.89;100.00;145410.09;5072421;28;20176;-65
2021/01/27 02:59:05;;;;;;;0.70;0.60;;;2.60;99.90;;;3.17;100.00;145478.25;5069444;28;20252;-65
2021/01/27 03:01:40;;;;;;;0.68;0.60;;;2.60;99.90;;;3.20;100.00;145485.81;5069459;28;20250;-64
2021/01/27 03:04:15;;;;;;;0.70;0.60;;;2.60;99.90;;;3.10;100.00;145460.59;5072128;28;20169;-64
2021/01/27 03:06:45;;;;;;;0.70;0.60;;;2.60;99.90;;;3.18;100.00;145480.78;5066322;28;20215;-64
2021/01/27 03:09:19;;;;;;;0.70;0.50;;;2.60;99.90;;;3.22;100.00;145490.88;5063936;28;20211;-65
2021/01/27 03:11:48;;;;;;;0.70;0.60;;;2.50;99.90;;;2.86;100.00;145402.53;5057950;28;20188;-65
2021/01/27 03:14:15;;;;;;;0.70;0.60;;;2.50;99.90;;;2.89;100.00;145408.84;5061275;28;20542;-65
2021/01/27 03:16:48;;;;;;;0.60;0.60;;;2.50;99.90;;;2.82;100.00;145392.44;5053339;28;20217;-65
2021/01/27 03:19:23;;;;;;;0.60;0.60;;;2.40;99.90;;;2.85;100.00;145398.75;5054412;28;20184;-64
2021/01/27 03:21:58;;;;;;;0.60;0.52;;;2.40;99.90;;;2.75;100.00;145374.78;5053393;28;20211;-64
2021/01/27 03:24:26;;;;;;;0.70;0.70;;;2.30;99.90;;;2.81;100.00;145388.69;5061010;28;20619;-65
2021/01/27 03:26:58;;;;;;;1.42;1.33;;;2.30;99.90;;;2.76;100.00;145377.34;5061952;28;20252;-65
2021/01/27 03:29:38;;;;;;;0.70;0.60;;;2.20;99.90;;;2.83;100.00;145393.69;5053428;28;20614;-65
2021/01/27 03:32:22;;;;;;;0.60;0.60;;;2.20;99.90;;;2.74;100.00;145372.28;5053412;28;20243;-66
2021/01/27 03:34:58;;;;;;;0.60;0.60;;;2.20;99.90;;;2.79;100.00;145383.63;5054415;28;20192;-65
2021/01/27 03:37:33;;;;;;;0.70;0.60;;;2.20;99.90;;;3.05;100.00;145447.94;5059554;28;20216;-65
2021/01/27 03:40:07;;;;;;;0.70;0.60;;;2.20;99.90;;;2.91;100.00;145413.91;5061077;28;20245;-64
2021/01/27 03:42:45;;;;;;;0.60;0.50;;;2.20;99.90;;;2.98;100.00;145430.28;5052754;28;20257;-65
2021/01/27 03:45:13;;;;;;;0.70;0.60;;;2.20;99.90;;;3.02;100.00;145440.38;5063388;28;20647;-65
2021/01/27 03:47:48;;;;;;;0.70;0.60;;;2.20;99.90;;;2.90;100.00;145411.34;5073163;28;20608;-65
2021/01/27 03:50:20;;;;;;;0.60;0.50;;;2.20;99.90;;;3.05;100.00;145447.94;5062375;28;20286;-65
2021/01/27 03:52:54;;;;;;;0.60;0.50;;;2.20;99.90;;;2.84;100.00;145397.50;5060977;28;20628;-64
2021/01/27 03:55:30;;;;;;;0.60;0.50;;;2.20;99.90;;;2.97;100.00;145427.78;5072681;28;20177;-66
2021/01/27 03:58:07;;;;;;;0.60;0.60;;;2.20;99.90;;;3.00;100.00;145436.59;5054775;28;20184;-64
2021/01/27 04:00:34;;;;;;;0.70;0.70;;;2.20;99.90;;;2.90;100.00;145412.63;5063250;28;20263;-64
2021/01/27 04:03:14;;;;;;;0.60;0.60;;;2.10;99.90;;;2.96;100.00;145425.25;5072690;28;20188;-66
2021/01/27 04:05:41;;;;;;;0.60;0.50;;;2.20;99.90;;;3.00;100.00;145436.59;5059122;28;20186;-66
2021/01/27 04:08:09;;;;;;;0.70;0.60;;;2.10;99.90;;;3.08;100.00;145455.53;5061203;28;20263;-66
2021/01/27 04:10:37;;;;;;;0.65;0.60;;;2.20;99.90;;;3.11;100.00;145464.38;5068953;28;20243;-65
2021/01/27 04:13:04;;;;;;;0.60;0.50;;;2.20;99.90;;;3.02;100.00;145441.69;5073145;28;20693;-64
2021/01/27 04:15:32;;;;;;;0.70;0.60;;;2.20;99.90;;;3.21;100.00;145488.38;5059633;28;20664;-64
2021/01/27 04:17:59;;;;;;;0.70;0.60;;;2.20;99.90;;;3.04;100.00;145446.69;5055991;28;20596;-64
2021/01/27 04:20:27;;;;;;;0.60;0.57;;;2.20;99.90;;;2.95;100.00;145422.75;5063847;28;20196;-65
2021/01/27 04:22:54;;;;;;;0.60;0.60;;;2.30;99.90;;;3.01;100.00;145437.84;5072723;28;20224;-65
2021/01/27 04:25:22;;;;;;;0.70;0.60;;;2.30;99.90;;;3.03;100.00;145442.94;5069260;28;20235;-65
2021/01/27 04:27:49;;;;;;;0.70;0.60;;;2.30;99.90;;;3.13;100.00;145468.19;5056517;28;20216;-65
2021/01/27 04:30:20;;;;;;;0.60;0.60;;;2.30;99.90;;;3.21;100.00;145485.75;5058169;28;20287;-65
2021/01/27 04:32:47;;;;;;;0.60;0.50;;;2.30;99.90;;;3.17;100.00;145475.66;5056367;28;20181;-65
2021/01/27 04:35:17;;;;;;;0.60;0.50;;;2.30;99.90;;;3.29;100.00;145173.25;5060143;28;20194;-64
2021/01/27 04:37:44;;;;;;;0.70;0.60;;;2.40;99.90;;;3.36;100.00;144524.28;5066859;28;20697;-65
2021/01/27 04:40:16;;;;;;;0.60;0.60;;;2.40;99.90;;;3.20;100.00;143820.31;5063949;28;20201;-65
2021/01/27 04:42:44;;;;;;;0.70;0.60;;;2.40;99.90;;;3.23;100.00;143494.06;5072653;28;20677;-64
2021/01/27 04:45:13;;;;;;;0.60;0.60;;;2.40;99.90;;;3.17;100.00;143479.13;5074228;28;20236;-65
2021/01/27 04:47:51;;;;;;;0.60;0.60;;;2.40;99.90;;;3.12;100.00;143135.53;5076681;28;20243;-65
2021/01/27 04:50:25;;;;;;;0.68;0.63;;;2.40;99.90;;;3.27;100.00;142506.66;5064235;28;20193;-64
2021/01/27 04:53:23;;;;;;;0.60;0.50;;;2.40;99.90;;;3.32;100.00;141854.22;5056132;28;20169;-64
2021/01/27 04:56:21;;;;;;;0.70;0.70;;;2.40;99.90;;;3.29;100.00;141182.19;5049685;28;20220;-65
2021/01/27 04:58:58;;;;;;;0.70;0.60;;;2.40;99.90;;;3.19;100.00;140825.44;5057201;28;20614;-65
2021/01/27 05:02:02;;;;;;;0.70;0.60;;;2.30;99.90;;;3.10;100.00;140472.56;5068050;28;20701;-64
2021/01/27 05:04:44;;;;;;;0.60;0.52;;;2.30;99.90;;;2.80;100.00;140400.59;5063597;28;20188;-64
2021/01/27 05:07:15;;;;;;;0.70;0.60;;;2.30;99.90;;;3.13;100.00;140812.03;5074694;28;20212;-65
2021/01/27 05:09:52;;;;;;;0.60;0.50;;;2.30;99.90;;;3.08;100.00;140467.66;5056181;28;20181;-67
2021/01/27 05:12:19;;;;;;;0.60;0.60;;;2.30;99.90;;;3.14;100.00;140150.16;5056961;28;20572;-64
2021/01/27 05:14:47;;;;;;;0.60;0.60;;;2.30;99.90;;;2.92;100.00;139433.94;5060003;28;20209;-66
2021/01/27 05:17:19;;;;;;;0.60;0.50;;;2.30;99.90;;;2.99;100.00;139781.66;5055917;28;20173;-64
2021/01/27 05:19:48;;;;;;;0.60;0.60;;;2.20;99.90;;;2.85;100.00;140080.84;5057620;28;20192;-67
2021/01/27 05:22:17;;;;;;;0.60;0.60;;;2.20;99.90;;;2.87;100.00;140086.94;5056041;28;20185;-64
2021/01/27 05:24:46;;;;;;;0.60;0.60;;;2.10;99.90;;;2.94;100.00;140434.72;5039769;28;20289;-65
2021/01/27 05:27:18;;;;;;;0.70;0.60;;;2.10;99.90;;;2.81;100.00;140071.13;5066694;28;20251;-64
2021/01/27 05:29:54;;;;;;;0.60;0.57;;;2.10;99.90;;;2.95;100.00;140103.97;5056295;28;20220;-64
2021/01/27 05:32:22;;;;;;;0.70;0.60;;;2.10;99.90;;;3.00;100.00;139785.28;5055854;28;20178;-64
2021/01/27 05:34:52;;;;;;;0.60;0.60;;;2.10;99.90;;;2.93;100.00;139104.41;5055319;28;20212;-64
2021/01/27 05:37:32;;;;;;;0.60;0.50;;;2.10;99.90;;;2.90;100.00;138434.63;5055956;28;20178;-65
2021/01/27 05:40:07;;;;;;;0.60;0.60;;;2.10;99.90;;;2.90;100.00;138102.81;5062552;28;20727;-65
2021/01/27 05:42:39;;;;;;;0.60;0.50;;;2.10;99.90;;;2.94;100.00;137778.19;5059435;28;20271;-67
2021/01/27 05:45:36;;;;;;;0.60;0.50;;;2.10;99.90;;;3.00;100.00;137460.75;5059345;28;20213;-65
2021/01/27 05:48:26;;;;;;;0.60;0.57;;;2.10;99.90;;;2.83;100.00;136759.22;5058185;28;20194;-64
2021/01/27 05:51:11;;;;;;;0.70;0.70;;;2.10;99.90;;;2.95;100.00;136453.69;5055762;28;20182;-65
2021/01/27 05:53:38;;;;;;;0.60;0.60;;;2.10;99.90;;;2.74;100.00;135411.75;5056122;28;20189;-64
2021/01/27 05:56:13;;;;;;;0.60;0.50;;;2.10;99.90;;;2.77;100.00;135417.66;5073627;28;20192;-66
2021/01/27 05:58:46;;;;;;;0.60;0.60;;;2.10;99.90;;;2.79;100.00;135423.50;5063486;28;20239;-65
2021/01/27 06:01:39;;;;;;;0.60;0.60;;;2.00;99.90;;;2.74;100.00;135079.13;5070374;28;20708;-66
2021/01/27 06:04:24;;;;;;;0.60;0.50;;;2.00;99.90;;;2.75;100.00;134751.22;5065707;28;20712;-64
2021/01/27 06:07:01;;;;;;;0.65;0.57;;;2.00;99.90;;;2.66;100.00;134067.53;5055092;28;20545;-65
2021/01/27 06:09:41;;;;;;;1.58;1.48;;;2.00;99.90;;;2.61;100.00;133725.78;5058570;28;20294;-65
2021/01/27 06:12:24;;;;;;;0.60;0.60;;;2.00;99.90;;;2.76;100.00;133758.28;5059224;28;20589;-65
2021/01/27 06:15:12;;;;;;;0.60;0.50;;;2.00;99.90;;;2.68;100.00;133078.38;5066780;28;20295;-65
2021/01/27 06:17:45;;;;;;;0.60;0.60;;;2.00;99.90;;;2.78;100.00;133100.34;5073060;28;20233;-64
2021/01/27 06:20:30;;;;;;;0.60;0.50;;;2.00;99.90;;;2.64;100.00;132076.81;5067203;28;20189;-66
2021/01/27 06:23:53;;;;;;;0.60;0.50;;;1.90;99.90;;;2.48;100.00;131046.13;5054325;28;20178;-65
2021/01/27 06:26:51;;;;;;;0.60;0.60;;;1.90;99.90;;;2.64;100.00;131082.53;5043481;28;20251;-65
2021/01/27 06:29:44;;;;;;;0.60;0.50;;;1.90;99.90;;;2.72;100.00;130438.69;5058426;28;20236;-65
2021/01/27 06:32:39;;;;;;;0.60;0.57;;;2.00;99.90;;;2.75;100.00;130114.50;5058409;28;20213;-65
2021/01/27 06:35:33;;;;;;;0.60;0.60;;;1.90;99.90;;;2.52;100.00;128408.69;5066275;28;20192;-65
2021/01/27 06:38:16;;;;;;;0.60;0.50;;;1.90;99.90;;;2.41;100.00;127394.63;5066512;28;20190;-65
2021/01/27 06:40:59;;;;;;;0.60;0.50;;;1.80;99.90;;;2.58;100.00;126769.94;5063303;28;20188;-65
2021/01/27 06:43:58;;;;;;;0.60;0.50;;;1.80;99.90;;;2.39;100.00;125077.25;5062119;28;20266;-66
2021/01/27 06:47:04;;;;;;;0.60;0.50;;;1.70;99.90;;;2.35;100.00;123087.31;5056788;28;20673;-65
2021/01/27 06:50:35;;;;;;;0.60;0.50;;;1.70;99.90;;;2.52;100.00;122131.13;5058792;28;20216;-64
2021/01/27 06:53:32;;;;;;;1.05;0.95;;;1.60;99.90;;;2.19;100.00;119424.81;5065939;28;20215;-67
2021/01/27 06:56:55;;;;;;;0.60;0.50;;;1.50;99.90;;;2.26;100.00;116143.75;5069086;28;20177;-65
2021/01/27 07:00:13;;;;;;;0.60;0.60;;;1.50;99.90;;;2.34;100.00;114513.03;5054383;28;20246;-65
2021/01/27 07:03:26;;;;;;;0.60;0.50;;;1.50;99.90;;;2.32;100.00;111546.75;5058626;28;20250;-65
2021/01/27 07:06:53;;;;;;;0.60;0.50;;;1.50;99.90;;;2.28;100.00;108579.34;5056215;28;20252;-65
2021/01/27 07:10:01;;;;;;;0.60;0.60;;;1.50;99.90;;;2.33;100.00;105303.03;5059816;28;20202;-65
2021/01/27 07:12:36;;;;;;;0.60;0.60;;;1.50;99.90;;;2.24;100.00;102004.28;5054590;28;20213;-65
2021/01/27 07:15:45;;;;;;;0.60;0.50;;;1.40;99.90;;;2.11;100.00;99358.22;5070760;28;20228;-65
2021/01/27 07:18:33;;;;;;;0.60;0.50;;;1.40;99.90;;;2.03;100.00;96069.72;5067912;28;20201;-65
2021/01/27 07:21:04;;;;;;;0.60;0.50;;;1.30;99.90;;;2.00;100.00;93445.81;5057559;28;20185;-65
2021/01/27 07:23:40;;;;;;;0.60;0.60;;;1.30;99.90;;;2.08;100.00;91169.44;5062067;28;20542;-65
2021/01/27 07:26:15;;;;;;;0.60;0.50;;;1.30;99.90;;;2.04;100.00;87895.25;5054463;28;20184;-65
2021/01/27 07:28:56;;;;;;;0.60;0.60;;;1.30;99.90;;;1.99;100.00;84949.41;5054283;28;20315;-65
2021/01/27 07:31:32;;;;;;;0.70;0.70;;;1.20;99.90;;;2.02;100.00;82671.00;5053943;28;20209;-65
2021/01/27 07:34:29;;;;;;;0.60;0.50;;;1.20;99.90;;;1.89;100.00;79393.88;5057937;28;20224;-65
2021/01/27 07:37:19;;;;;;;0.60;0.55;;;1.30;99.90;;;1.90;100.00;75813.88;5073827;28;20169;-64
2021/01/27 07:40:03;;;;;;;0.60;0.50;;;1.30;99.90;;;2.01;100.00;72574.09;5054335;28;20201;-65
2021/01/27 07:42:39;;;;;;;0.60;0.55;;;1.20;99.90;;;2.00;100.00;69322.84;5064328;28;20197;-66
2021/01/27 07:45:12;;;;;;;0.60;0.50;;;1.20;99.90;;;2.13;100.00;67065.09;5066729;28;20208;-66
2021/01/27 07:47:56;;;;;;;0.60;0.50;;;1.30;99.90;;;2.05;100.00;63161.97;5068031;28;20178;-65
2021/01/27 07:50:25;;;;;;;0.60;0.50;;;1.30;99.90;;;1.92;100.00;59260.13;5056186;28;20189;-65
2021/01/27 07:53:09;;;;;;;0.60;0.50;;;1.30;99.90;;;2.08;100.00;56361.81;5058833;28;20193;-67
2021/01/27 07:55:59;;;;;;;0.60;0.50;;;1.30;99.90;;;2.16;100.00;52811.06;5067461;28;20757;-66
2021/01/27 07:58:34;;;;;;;0.60;0.50;;;1.40;99.90;;;2.14;100.00;50223.41;5071409;28;20577;-65
2021/01/27 08:01:10;;;;;;;0.60;0.50;;;1.40;99.90;;;2.13;100.00;46993.13;5051156;28;20182;-66
2021/01/27 08:03:53;;;;;;;0.60;0.50;;;1.40;99.90;;;2.03;100.00;42792.16;5052289;28;20166;-66
2021/01/27 08:06:24;;;;;;;0.60;0.50;;;1.40;99.90;;;2.06;100.00;39250.19;5066983;28;20187;-64
2021/01/27 08:08:55;;;;;;;1.00;0.90;;;1.40;99.90;;;2.30;100.00;37334.81;5058253;28;20201;-65
2021/01/27 08:11:32;;;;;;;0.60;0.50;;;1.40;99.90;;;2.26;100.00;34393.59;5053007;28;20177;-69
2021/01/27 08:14:02;;;;;;;0.60;0.50;;;1.40;99.90;;;2.22;100.00;32313.72;5053188;28;20245;-66
2021/01/27 08:16:41;;;;;;;0.60;0.50;;;1.40;99.90;;;2.13;100.00;29640.44;5051767;28;20193;-65
2021/01/27 08:19:22;;;;;;;0.60;0.57;;;1.40;99.90;;;2.28;100.00;27739.44;5052602;28;20181;-66
2021/01/27 08:22:04;;;;;;;0.60;0.60;;;1.50;99.90;;;2.23;100.00;25074.94;5055646;28;20570;-66
2021/01/27 08:24:57;;;;;;;0.60;0.50;;;1.40;99.90;;;2.28;100.00;22857.81;5053001;28;20170;-66
2021/01/27 08:27:43;;;;;;;0.60;0.50;;;1.40;99.90;;;2.52;100.00;21300.13;5052298;28;20216;-65
2021/01/27 08:30:28;;;;;;;0.60;0.50;;;1.50;99.90;;;2.30;100.00;19039.28;5052500;28;20300;-66
2021/01/27 08:33:51;;;;;;;0.60;0.50;;;1.60;99.90;;;2.37;100.00;16801.13;5057935;28;20189;-66
2021/01/27 08:36:20;;;;;;;0.60;0.50;;;1.60;99.90;;;2.26;100.00;14693.34;5052886;28;20553;-66
2021/01/27 08:39:07;;;;;;;0.60;0.50;;;1.60;99.90;;;2.35;100.00;12008.94;5052274;28;20189;-66
2021/01/27 08:41:45;;;;;;;0.60;0.50;;;1.70;99.90;;;2.62;100.00;10777.41;5052333;28;20201;-64
2021/01/27 08:44:28;;;;;;;0.60;0.52;;;1.70;99.90;;;2.62;100.00;9319.63;5050717;28;20323;-64
2021/01/27 08:46:59;;;;;;;0.60;0.50;;;1.80;99.90;;;2.88;100.00;9115.63;5057237;28;20188;-64
2021/01/27 08:49:53;;;;;;;0.60;0.50;;;1.80;99.90;;;2.87;100.00;8688.56;5067134;28;20574;-64
2021/01/27 08:52:39;;;;;;;1.02;0.93;;;1.80;99.90;;;2.73;100.00;8443.63;5054299;28;20209;-64
2021/01/27 08:55:38;;;;;;;0.70;0.70;;;1.90;99.90;;;2.79;100.00;7771.03;5056477;28;20630;-66
2021/01/27 08:58:35;;;;;;;0.60;0.50;;;1.90;99.90;;;2.83;100.00;7622.19;5052590;28;20700;-66
2021/01/27 09:01:08;;;;;;;0.73;0.73;;;1.90;99.90;;;2.78;100.00;6902.81;5071151;28;20220;-66
2021/01/27 09:04:02;;;;;;;0.60;0.60;;;1.90;99.90;;;2.73;100.00;5976.78;5056646;28;20582;-66
2021/01/27 09:06:41;;;;;;;0.60;0.50;;;1.90;99.90;;;2.82;100.00;4941.03;5056125;28;20193;-65
2021/01/27 09:09:26;;;;;;;0.60;0.50;;;2.00;99.90;;;2.90;100.00;3832.88;5056505;28;20209;-66
2021/01/27 09:12:00;;;;;;;0.60;0.50;;;2.00;99.90;;;3.05;100.00;3218.97;5055756;28;20205;-65
2021/01/27 09:14:27;;;;;;;0.60;0.50;;;2.00;99.90;;;3.21;100.00;3420.28;5072395;28;20270;-66
2021/01/27 09:16:56;;;;;;;0.60;0.60;;;2.10;99.90;;;2.83;100.00;1545.00;5064135;28;20192;-66
2021/01/27 09:19:35;;;;;;;0.60;0.50;;;2.10;99.90;;;2.93;100.00;1732.66;5075625;28;20173;-66
2021/01/27 09:22:21;;;;;;;0.60;0.60;;;2.10;99.90;;;3.02;100.00;933.88;5068954;28;20195;-66
2021/01/27 09:24:50;;;;;;;0.60;0.50;;;2.20;99.90;;;3.22;100.00;63.56;5055764;28;20657;-66
2021/01/27 09:27:22;;;;;;;0.60;0.50;;;2.20;99.90;;;3.30;100.00;-603.47;5055603;28;20187;-66
2021/01/27 09:30:00;;;;;;;0.60;0.60;;;2.20;99.90;;;3.26;100.00;-735.69;5056700;28;20237;-65
2021/01/27 09:32:29;;;;;;;0.60;0.50;;;2.30;99.90;;;3.57;100.00;95.72;5075713;28;20192;-66
2021/01/27 09:35:15;;;;;;;0.60;0.50;;;2.40;99.90;;;3.52;100.00;115.31;5067800;28;20191;-66
2021/01/27 09:37:54;;;;;;;0.60;0.50;;;2.50;99.90;;;3.44;100.00;122.28;5056698;28;20273;-66
2021/01/27 09:40:31;;;;;;;0.60;0.50;;;2.40;99.90;;;3.36;100.00;-87.53;5070975;28;20197;-64
2021/01/27 09:43:08;;;;;;;0.60;0.57;;;2.40;99.90;;;3.28;100.00;-730.63;5075506;28;20196;-65
2021/01/27 09:45:37;;;;;;;0.60;0.50;;;2.40;99.90;;;3.17;100.00;-1067.31;5064555;28;20185;-66
2021/01/27 09:48:06;;;;;;;0.60;0.50;;;2.40;99.90;;;3.22;100.00;-940.09;5056542;28;20222;-65
2021/01/27 09:50:39;;;;;;;0.63;0.60;;;2.40;99.90;;;3.28;100.00;-603.59;5068242;28;20679;-65
2021/01/27 09:53:17;;;;;;;0.60;0.52;;;2.40;99.90;;;3.31;100.00;-827.59;5067691;28;20186;-65
2021/01/27 09:55:44;;;;;;;0.60;0.50;;;2.50;99.90;;;3.46;100.00;-1160.66;5054821;28;20280;-64
2021/01/27 09:58:12;;;;;;;0.60;0.50;;;2.60;99.90;;;3.52;100.00;-1235.13;5055200;28;20189;-64
2021/01/27 10:00:40;;;;;;;0.60;0.50;;;2.60;99.90;;;3.52;100.00;-1043.31;5059066;28;20205;-66
2021/01/27 10:03:26;;;;;;;0.60;0.60;;;2.60;99.90;;;3.55;100.00;-1095.47;5056319;28;20539;-64
2021/01/27 10:05:54;;;;;;;0.60;0.50;;;2.60;99.90;;;3.58;100.00;-602.03;5055080;28;20180;-64
2021/01/27 10:08:26;;;;;;;0.60;0.60;;;2.60;99.90;;;3.55;100.00;-901.16;5054574;28;20212;-64
2021/01/27 10:11:07;;;;;;;0.60;0.50;;;2.60;99.90;;;3.57;100.00;-278.13;5055021;28;20166;-64
2021/01/27 10:13:37;;;;;;;0.65;0.60;;;2.60;99.90;;;3.56;100.00;-43.94;5056585;28;20240;-64
2021/01/27 10:16:09;;;;;;;0.60;0.50;;;2.60;99.90;;;3.62;100.00;81.06;5073344;28;20638;-64
2021/01/27 10:18:39;;;;;;;0.60;0.60;;;2.70;99.90;;;3.52;100.00;-502.69;5074835;28;20673;-64
2021/01/27 10:21:10;;;;;;;0.60;0.52;;;2.70;99.90;;;3.64;100.00;-477.09;5074805;28;20427;-65
2021/01/27 10:23:41;;;;;;;0.60;0.60;;;2.70;99.90;;;3.70;100.00;-464.31;5071805;28;20558;-65
2021/01/27 10:26:36;;;;;;;0.60;0.50;;;2.80;99.90;;;3.83;100.00;-483.50;5054930;28;20174;-66
2021/01/27 10:29:30;;;;;;;0.60;0.50;;;2.80;99.90;;;3.84;100.00;-346.34;5056573;28;20301;-65
2021/01/27 10:32:15;;;;;;;0.60;0.50;;;2.70;99.90;;;3.72;100.00;-3.09;5054769;28;20572;-66
2021/01/27 10:34:44;;;;;;;0.60;0.50;;;2.80;99.90;;;3.70;100.00;-200.13;5055303;28;20196;-66
2021/01/27 10:37:33;;;;;;;0.60;0.50;;;2.80;99.90;;;3.59;100.00;-1090.31;5054450;28;20189;-66
2021/01/27 10:40:22;;;;;;;0.60;0.50;;;2.70;99.90;;;3.56;100.00;-1299.72;5072127;28;20181;-64
2021/01/27 10:42:52;;;;;;;0.60;0.50;;;2.80;99.90;;;3.75;100.00;-1169.34;5073144;28;20208;-64
2021/01/27 10:45:33;;;;;;;0.60;0.50;;;2.80;99.90;;;3.94;100.00;-1118.69;5058449;28;20210;-65
2021/01/27 10:48:16;;;;;;;0.60;0.50;;;2.90;99.90;;;3.77;100.00;-1565.47;5054421;28;20622;-64
2021/01/27 10:50:47;;;;;;;0.60;0.50;;;2.90;99.90;;;3.79;100.00;-1844.50;5054437;28;20190;-65
2021/01/27 10:53:37;;;;;;;0.60;0.50;;;2.80;99.90;;;3.74;100.00;-2138.63;5061636;28;20432;-64
2021/01/27 10:56:05;;;;;;;0.60;0.60;;;2.90;99.90;;;3.88;100.00;-1707.09;5067872;28;20255;-65
2021/01/27 10:58:32;;;;;;;0.60;0.50;;;2.90;99.90;;;4.09;100.00;-1546.84;5053847;28;20721;-65
2021/01/27 11:00:59;;;;;;;0.60;0.60;;;3.00;99.90;;;4.13;100.00;-1334.75;5072373;28;20192;-65
2021/01/27 11:03:26;;;;;;;0.60;0.50;;;3.00;99.90;;;3.99;100.00;-1484.91;5073982;28;20515;-66
2021/01/27 11:05:54;;;;;;;0.60;0.50;;;3.10;99.90;;;3.91;100.00;-1776.78;5070678;28;20194;-66